sensor_id;sensor_type;location;lat;lon;timestamp;P1;durP1;ratioP1;P2;durP2;ratioP2
16304;SDS011;8261;47.678;-122.174;2023-06-22T00:00:16;6.63;;;2.17;;
16304;SDS011;8261;47.678;-122.174;2023-06-22T00:02:50;3.90;;;2.17;;
16304;SDS011;8261;47.678;-122.174;2023-06-22T00:05:22;4.57;;;2.20;;
16304;SDS011;8261;47.678;-122.174;2023-06-22T00:07:53;2.87;;;1.70;;
16304;SDS011;8261;47.678;-122.174;2023-06-22T00:10:24;4.00;;;1.90;;
16304;SDS011;8261;47.678;-122.174;2023-06-22T00:12:55;3.93;;;1.83;;
16304;SDS011;8261;47.678;-122.174;2023-06-22T00:15:27;3.73;;;2.00;;
16304;SDS011;8261;47.678;-122.174;2023-06-22T00:18:00;4.43;;;2.30;;
16304;SDS011;8261;47.678;-122.174;2023-06-22T00:20:31;2.70;;;2.17;;
16304;SDS011;8261;47.678;-122.174;2023-06-22T00:23:04;1.93;;;1.80;;
16304;SDS011;8261;47.678;-122.174;2023-06-22T00:25:36;3.33;;;2.00;;
16304;SDS011;8261;47.678;-122.174;2023-06-22T00:28:08;4.13;;;1.93;;
16304;SDS011;8261;47.678;-122.174;2023-06-22T00:30:39;3.83;;;1.90;;
16304;SDS011;8261;47.678;-122.174;2023-06-22T00:33:12;2.40;;;1.90;;
16304;SDS011;8261;47.678;-122.174;2023-06-22T00:35:43;2.83;;;2.00;;
16304;SDS011;8261;47.678;-122.174;2023-06-22T00:38:14;2.37;;;1.83;;
16304;SDS011;8261;47.678;-122.174;2023-06-22T00:40:45;3.67;;;2.13;;
16304;SDS011;8261;47.678;-122.174;2023-06-22T00:43:16;3.33;;;2.10;;
16304;SDS011;8261;47.678;-122.174;2023-06-22T00:45:47;2.73;;;1.97;;
16304;SDS011;8261;47.678;-122.174;2023-06-22T00:48:19;2.20;;;1.70;;
16304;SDS011;8261;47.678;-122.174;2023-06-22T00:50:51;3.50;;;2.10;;
16304;SDS011;8261;47.678;-122.174;2023-06-22T00:53:23;3.07;;;1.77;;
16304;SDS011;8261;47.678;-122.174;2023-06-22T00:55:54;2.63;;;1.87;;
16304;SDS011;8261;47.678;-122.174;2023-06-22T00:58:27;2.87;;;2.00;;
16304;SDS011;8261;47.678;-122.174;2023-06-22T01:00:58;3.20;;;1.90;;
16304;SDS011;8261;47.678;-122.174;2023-06-22T01:03:31;2.43;;;1.80;;
16304;SDS011;8261;47.678;-122.174;2023-06-22T01:06:05;4.80;;;2.17;;
16304;SDS011;8261;47.678;-122.174;2023-06-22T01:08:40;3.33;;;1.80;;
16304;SDS011;8261;47.678;-122.174;2023-06-22T01:11:18;3.97;;;2.20;;
16304;SDS011;8261;47.678;-122.174;2023-06-22T01:13:55;2.50;;;1.93;;
16304;SDS011;8261;47.678;-122.174;2023-06-22T01:16:33;4.57;;;1.80;;
16304;SDS011;8261;47.678;-122.174;2023-06-22T01:19:09;2.93;;;1.63;;
16304;SDS011;8261;47.678;-122.174;2023-06-22T01:21:56;3.23;;;1.47;;
16304;SDS011;8261;47.678;-122.174;2023-06-22T01:24:32;4.57;;;2.70;;
16304;SDS011;8261;47.678;-122.174;2023-06-22T01:27:14;2.90;;;2.00;;
16304;SDS011;8261;47.678;-122.174;2023-06-22T01:29:57;3.20;;;1.97;;
16304;SDS011;8261;47.678;-122.174;2023-06-22T01:32:33;6.30;;;1.70;;
16304;SDS011;8261;47.678;-122.174;2023-06-22T01:35:05;2.83;;;1.97;;
16304;SDS011;8261;47.678;-122.174;2023-06-22T01:37:38;4.57;;;1.63;;
16304;SDS011;8261;47.678;-122.174;2023-06-22T01:40:09;2.90;;;1.60;;
16304;SDS011;8261;47.678;-122.174;2023-06-22T01:42:41;5.50;;;3.30;;
16304;SDS011;8261;47.678;-122.174;2023-06-22T01:45:15;2.00;;;1.80;;
16304;SDS011;8261;47.678;-122.174;2023-06-22T01:47:47;3.00;;;2.10;;
16304;SDS011;8261;47.678;-122.174;2023-06-22T01:50:18;2.40;;;1.70;;
16304;SDS011;8261;47.678;-122.174;2023-06-22T01:52:49;1.93;;;1.60;;
16304;SDS011;8261;47.678;-122.174;2023-06-22T01:55:20;3.23;;;1.87;;
16304;SDS011;8261;47.678;-122.174;2023-06-22T01:57:52;2.90;;;1.70;;
16304;SDS011;8261;47.678;-122.174;2023-06-22T02:00:25;3.50;;;1.60;;
16304;SDS011;8261;47.678;-122.174;2023-06-22T02:03:03;3.97;;;1.50;;
16304;SDS011;8261;47.678;-122.174;2023-06-22T02:05:42;3.53;;;1.80;;
16304;SDS011;8261;47.678;-122.174;2023-06-22T02:08:19;2.93;;;1.77;;
16304;SDS011;8261;47.678;-122.174;2023-06-22T02:10:52;3.43;;;1.90;;
16304;SDS011;8261;47.678;-122.174;2023-06-22T02:13:25;2.13;;;1.53;;
16304;SDS011;8261;47.678;-122.174;2023-06-22T02:15:59;2.03;;;1.67;;
16304;SDS011;8261;47.678;-122.174;2023-06-22T02:18:31;2.87;;;1.70;;
16304;SDS011;8261;47.678;-122.174;2023-06-22T02:21:03;3.53;;;1.80;;
16304;SDS011;8261;47.678;-122.174;2023-06-22T02:23:34;2.57;;;1.87;;
16304;SDS011;8261;47.678;-122.174;2023-06-22T02:26:05;3.13;;;1.97;;
16304;SDS011;8261;47.678;-122.174;2023-06-22T02:28:36;3.30;;;1.70;;
16304;SDS011;8261;47.678;-122.174;2023-06-22T02:31:09;6.67;;;2.23;;
16304;SDS011;8261;47.678;-122.174;2023-06-22T02:33:40;6.97;;;1.90;;
16304;SDS011;8261;47.678;-122.174;2023-06-22T02:36:13;2.57;;;1.83;;
16304;SDS011;8261;47.678;-122.174;2023-06-22T02:38:44;2.17;;;1.97;;
16304;SDS011;8261;47.678;-122.174;2023-06-22T02:41:15;3.33;;;1.90;;
16304;SDS011;8261;47.678;-122.174;2023-06-22T02:43:47;3.47;;;1.67;;
16304;SDS011;8261;47.678;-122.174;2023-06-22T02:46:20;2.43;;;1.83;;
16304;SDS011;8261;47.678;-122.174;2023-06-22T02:48:51;2.73;;;1.80;;
16304;SDS011;8261;47.678;-122.174;2023-06-22T02:51:22;3.13;;;1.63;;
16304;SDS011;8261;47.678;-122.174;2023-06-22T02:53:52;2.23;;;1.90;;
16304;SDS011;8261;47.678;-122.174;2023-06-22T02:56:25;3.40;;;1.83;;
16304;SDS011;8261;47.678;-122.174;2023-06-22T02:58:57;3.77;;;1.80;;
16304;SDS011;8261;47.678;-122.174;2023-06-22T03:01:32;4.13;;;2.03;;
16304;SDS011;8261;47.678;-122.174;2023-06-22T03:04:07;3.13;;;1.90;;
16304;SDS011;8261;47.678;-122.174;2023-06-22T03:06:39;4.23;;;2.00;;
16304;SDS011;8261;47.678;-122.174;2023-06-22T03:09:10;5.57;;;2.20;;
16304;SDS011;8261;47.678;-122.174;2023-06-22T03:11:41;5.43;;;2.70;;
16304;SDS011;8261;47.678;-122.174;2023-06-22T03:14:12;4.27;;;1.70;;
16304;SDS011;8261;47.678;-122.174;2023-06-22T03:16:44;4.20;;;2.30;;
16304;SDS011;8261;47.678;-122.174;2023-06-22T03:19:15;5.97;;;2.13;;
16304;SDS011;8261;47.678;-122.174;2023-06-22T03:21:47;3.80;;;1.90;;
16304;SDS011;8261;47.678;-122.174;2023-06-22T03:24:17;2.73;;;1.50;;
16304;SDS011;8261;47.678;-122.174;2023-06-22T03:26:49;2.30;;;1.93;;
16304;SDS011;8261;47.678;-122.174;2023-06-22T03:29:19;3.70;;;2.10;;
16304;SDS011;8261;47.678;-122.174;2023-06-22T03:31:53;2.80;;;2.00;;
16304;SDS011;8261;47.678;-122.174;2023-06-22T03:34:24;4.10;;;2.17;;
16304;SDS011;8261;47.678;-122.174;2023-06-22T03:36:55;2.97;;;2.10;;
16304;SDS011;8261;47.678;-122.174;2023-06-22T03:39:25;3.57;;;1.80;;
16304;SDS011;8261;47.678;-122.174;2023-06-22T03:41:57;3.00;;;2.07;;
16304;SDS011;8261;47.678;-122.174;2023-06-22T03:44:27;4.27;;;1.97;;
16304;SDS011;8261;47.678;-122.174;2023-06-22T03:47:00;5.67;;;2.37;;
16304;SDS011;8261;47.678;-122.174;2023-06-22T03:49:31;6.33;;;2.23;;
16304;SDS011;8261;47.678;-122.174;2023-06-22T03:52:02;4.27;;;2.50;;
16304;SDS011;8261;47.678;-122.174;2023-06-22T03:54:34;5.27;;;1.80;;
16304;SDS011;8261;47.678;-122.174;2023-06-22T03:57:05;2.67;;;1.90;;
16304;SDS011;8261;47.678;-122.174;2023-06-22T03:59:36;4.07;;;2.57;;
16304;SDS011;8261;47.678;-122.174;2023-06-22T04:02:08;3.83;;;1.80;;
16304;SDS011;8261;47.678;-122.174;2023-06-22T04:04:39;3.73;;;2.40;;
16304;SDS011;8261;47.678;-122.174;2023-06-22T04:07:10;3.37;;;2.50;;
16304;SDS011;8261;47.678;-122.174;2023-06-22T04:09:41;2.40;;;2.13;;
16304;SDS011;8261;47.678;-122.174;2023-06-22T04:12:12;5.97;;;2.63;;
16304;SDS011;8261;47.678;-122.174;2023-06-22T04:14:43;2.90;;;2.23;;
16304;SDS011;8261;47.678;-122.174;2023-06-22T04:17:15;4.07;;;2.30;;
16304;SDS011;8261;47.678;-122.174;2023-06-22T04:19:47;3.63;;;2.00;;
16304;SDS011;8261;47.678;-122.174;2023-06-22T04:22:17;2.50;;;1.97;;
16304;SDS011;8261;47.678;-122.174;2023-06-22T04:24:49;3.87;;;2.37;;
16304;SDS011;8261;47.678;-122.174;2023-06-22T04:27:20;3.47;;;1.97;;
16304;SDS011;8261;47.678;-122.174;2023-06-22T04:29:51;4.77;;;2.07;;
16304;SDS011;8261;47.678;-122.174;2023-06-22T04:32:24;3.43;;;2.40;;
16304;SDS011;8261;47.678;-122.174;2023-06-22T04:34:55;4.73;;;2.50;;
16304;SDS011;8261;47.678;-122.174;2023-06-22T04:37:27;2.80;;;2.23;;
16304;SDS011;8261;47.678;-122.174;2023-06-22T04:39:58;3.17;;;2.20;;
16304;SDS011;8261;47.678;-122.174;2023-06-22T04:42:33;3.50;;;2.27;;
16304;SDS011;8261;47.678;-122.174;2023-06-22T04:45:05;3.93;;;2.40;;
16304;SDS011;8261;47.678;-122.174;2023-06-22T04:47:39;3.30;;;2.20;;
16304;SDS011;8261;47.678;-122.174;2023-06-22T04:50:10;4.43;;;2.13;;
16304;SDS011;8261;47.678;-122.174;2023-06-22T04:52:42;2.97;;;2.33;;
16304;SDS011;8261;47.678;-122.174;2023-06-22T04:55:13;3.87;;;2.33;;
16304;SDS011;8261;47.678;-122.174;2023-06-22T04:57:48;3.70;;;2.30;;
16304;SDS011;8261;47.678;-122.174;2023-06-22T05:00:19;5.03;;;2.30;;
16304;SDS011;8261;47.678;-122.174;2023-06-22T05:02:52;4.40;;;2.17;;
16304;SDS011;8261;47.678;-122.174;2023-06-22T05:05:44;3.33;;;2.40;;
16304;SDS011;8261;47.678;-122.174;2023-06-22T05:08:16;2.57;;;2.00;;
16304;SDS011;8261;47.678;-122.174;2023-06-22T05:10:47;4.50;;;1.90;;
16304;SDS011;8261;47.678;-122.174;2023-06-22T05:13:31;3.87;;;1.80;;
16304;SDS011;8261;47.678;-122.174;2023-06-22T05:16:01;3.60;;;1.73;;
16304;SDS011;8261;47.678;-122.174;2023-06-22T05:18:35;3.63;;;1.87;;
16304;SDS011;8261;47.678;-122.174;2023-06-22T05:21:07;4.07;;;2.10;;
16304;SDS011;8261;47.678;-122.174;2023-06-22T05:23:39;3.37;;;1.93;;
16304;SDS011;8261;47.678;-122.174;2023-06-22T05:26:09;4.00;;;2.03;;
16304;SDS011;8261;47.678;-122.174;2023-06-22T05:28:40;3.03;;;1.70;;
16304;SDS011;8261;47.678;-122.174;2023-06-22T05:31:13;3.40;;;1.90;;
16304;SDS011;8261;47.678;-122.174;2023-06-22T05:33:47;2.90;;;2.00;;
16304;SDS011;8261;47.678;-122.174;2023-06-22T05:36:22;3.17;;;2.07;;
16304;SDS011;8261;47.678;-122.174;2023-06-22T05:38:55;3.97;;;2.10;;
16304;SDS011;8261;47.678;-122.174;2023-06-22T05:41:27;3.83;;;2.00;;
16304;SDS011;8261;47.678;-122.174;2023-06-22T05:43:58;4.20;;;1.90;;
16304;SDS011;8261;47.678;-122.174;2023-06-22T05:46:30;4.07;;;1.83;;
16304;SDS011;8261;47.678;-122.174;2023-06-22T05:49:04;3.37;;;1.80;;
16304;SDS011;8261;47.678;-122.174;2023-06-22T05:51:35;3.10;;;1.97;;
16304;SDS011;8261;47.678;-122.174;2023-06-22T05:54:07;3.63;;;2.00;;
16304;SDS011;8261;47.678;-122.174;2023-06-22T05:56:38;6.10;;;2.30;;
16304;SDS011;8261;47.678;-122.174;2023-06-22T05:59:09;3.23;;;2.27;;
16304;SDS011;8261;47.678;-122.174;2023-06-22T06:01:40;4.07;;;2.33;;
16304;SDS011;8261;47.678;-122.174;2023-06-22T06:04:14;4.53;;;2.50;;
16304;SDS011;8261;47.678;-122.174;2023-06-22T06:06:46;2.67;;;2.07;;
16304;SDS011;8261;47.678;-122.174;2023-06-22T06:09:17;2.53;;;1.90;;
16304;SDS011;8261;47.678;-122.174;2023-06-22T06:11:49;2.20;;;2.00;;
16304;SDS011;8261;47.678;-122.174;2023-06-22T06:14:20;3.67;;;2.07;;
16304;SDS011;8261;47.678;-122.174;2023-06-22T06:16:52;3.80;;;2.17;;
16304;SDS011;8261;47.678;-122.174;2023-06-22T06:19:25;3.30;;;2.10;;
16304;SDS011;8261;47.678;-122.174;2023-06-22T06:21:56;3.83;;;2.13;;
16304;SDS011;8261;47.678;-122.174;2023-06-22T06:24:28;3.80;;;2.00;;
16304;SDS011;8261;47.678;-122.174;2023-06-22T06:26:59;5.93;;;2.70;;
16304;SDS011;8261;47.678;-122.174;2023-06-22T06:29:32;4.07;;;2.53;;
16304;SDS011;8261;47.678;-122.174;2023-06-22T06:32:04;2.57;;;2.00;;
16304;SDS011;8261;47.678;-122.174;2023-06-22T06:34:38;3.70;;;2.17;;
16304;SDS011;8261;47.678;-122.174;2023-06-22T06:37:10;4.50;;;2.30;;
16304;SDS011;8261;47.678;-122.174;2023-06-22T06:39:42;3.20;;;2.50;;
16304;SDS011;8261;47.678;-122.174;2023-06-22T06:42:13;2.50;;;2.20;;
16304;SDS011;8261;47.678;-122.174;2023-06-22T06:44:44;4.07;;;2.20;;
16304;SDS011;8261;47.678;-122.174;2023-06-22T06:47:16;2.33;;;2.07;;
16304;SDS011;8261;47.678;-122.174;2023-06-22T06:49:49;3.57;;;2.40;;
16304;SDS011;8261;47.678;-122.174;2023-06-22T06:52:23;4.07;;;2.30;;
16304;SDS011;8261;47.678;-122.174;2023-06-22T06:54:55;3.17;;;2.10;;
16304;SDS011;8261;47.678;-122.174;2023-06-22T06:57:26;3.57;;;2.40;;
16304;SDS011;8261;47.678;-122.174;2023-06-22T06:59:58;4.23;;;2.50;;
16304;SDS011;8261;47.678;-122.174;2023-06-22T07:02:29;3.33;;;2.40;;
16304;SDS011;8261;47.678;-122.174;2023-06-22T07:05:02;6.40;;;2.80;;
16304;SDS011;8261;47.678;-122.174;2023-06-22T07:07:34;3.63;;;2.33;;
16304;SDS011;8261;47.678;-122.174;2023-06-22T07:10:06;2.73;;;2.20;;
16304;SDS011;8261;47.678;-122.174;2023-06-22T07:12:38;4.33;;;2.30;;
16304;SDS011;8261;47.678;-122.174;2023-06-22T07:15:09;3.10;;;2.13;;
16304;SDS011;8261;47.678;-122.174;2023-06-22T07:17:40;5.50;;;2.60;;
16304;SDS011;8261;47.678;-122.174;2023-06-22T07:20:14;3.10;;;2.27;;
16304;SDS011;8261;47.678;-122.174;2023-06-22T07:22:47;3.67;;;2.50;;
16304;SDS011;8261;47.678;-122.174;2023-06-22T07:25:19;3.20;;;2.60;;
16304;SDS011;8261;47.678;-122.174;2023-06-22T07:27:57;4.23;;;2.40;;
16304;SDS011;8261;47.678;-122.174;2023-06-22T07:30:29;4.10;;;2.53;;
16304;SDS011;8261;47.678;-122.174;2023-06-22T07:33:01;4.40;;;2.60;;
16304;SDS011;8261;47.678;-122.174;2023-06-22T07:35:38;5.30;;;2.37;;
16304;SDS011;8261;47.678;-122.174;2023-06-22T07:38:09;4.00;;;2.60;;
16304;SDS011;8261;47.678;-122.174;2023-06-22T07:40:40;3.30;;;2.90;;
16304;SDS011;8261;47.678;-122.174;2023-06-22T07:43:11;6.63;;;2.90;;
16304;SDS011;8261;47.678;-122.174;2023-06-22T07:45:47;3.10;;;2.90;;
16304;SDS011;8261;47.678;-122.174;2023-06-22T07:48:21;5.07;;;2.80;;
16304;SDS011;8261;47.678;-122.174;2023-06-22T07:50:54;5.67;;;2.90;;
16304;SDS011;8261;47.678;-122.174;2023-06-22T07:53:25;4.00;;;2.57;;
16304;SDS011;8261;47.678;-122.174;2023-06-22T07:55:56;3.37;;;2.60;;
16304;SDS011;8261;47.678;-122.174;2023-06-22T07:58:27;5.23;;;3.20;;
16304;SDS011;8261;47.678;-122.174;2023-06-22T08:00:58;3.53;;;2.67;;
16304;SDS011;8261;47.678;-122.174;2023-06-22T08:03:30;3.33;;;2.50;;
16304;SDS011;8261;47.678;-122.174;2023-06-22T08:06:03;3.23;;;2.73;;
16304;SDS011;8261;47.678;-122.174;2023-06-22T08:08:36;4.40;;;2.93;;
16304;SDS011;8261;47.678;-122.174;2023-06-22T08:11:07;2.83;;;2.60;;
16304;SDS011;8261;47.678;-122.174;2023-06-22T08:13:38;7.00;;;2.73;;
16304;SDS011;8261;47.678;-122.174;2023-06-22T08:16:10;3.50;;;2.60;;
16304;SDS011;8261;47.678;-122.174;2023-06-22T08:18:41;5.10;;;2.87;;
16304;SDS011;8261;47.678;-122.174;2023-06-22T08:21:14;5.70;;;3.00;;
16304;SDS011;8261;47.678;-122.174;2023-06-22T08:23:46;5.83;;;3.23;;
16304;SDS011;8261;47.678;-122.174;2023-06-22T08:26:18;2.70;;;2.50;;
16304;SDS011;8261;47.678;-122.174;2023-06-22T08:28:50;5.17;;;2.77;;
16304;SDS011;8261;47.678;-122.174;2023-06-22T08:31:22;3.17;;;2.70;;
16304;SDS011;8261;47.678;-122.174;2023-06-22T08:33:53;3.17;;;2.87;;
16304;SDS011;8261;47.678;-122.174;2023-06-22T08:36:26;4.47;;;2.80;;
16304;SDS011;8261;47.678;-122.174;2023-06-22T08:39:02;5.53;;;3.00;;
16304;SDS011;8261;47.678;-122.174;2023-06-22T08:41:34;2.97;;;2.67;;
16304;SDS011;8261;47.678;-122.174;2023-06-22T08:44:05;4.00;;;2.87;;
16304;SDS011;8261;47.678;-122.174;2023-06-22T08:46:36;4.77;;;3.00;;
16304;SDS011;8261;47.678;-122.174;2023-06-22T08:49:08;4.30;;;3.00;;
16304;SDS011;8261;47.678;-122.174;2023-06-22T08:51:41;5.20;;;3.10;;
16304;SDS011;8261;47.678;-122.174;2023-06-22T08:54:14;4.33;;;2.70;;
16304;SDS011;8261;47.678;-122.174;2023-06-22T08:56:45;4.70;;;2.67;;
16304;SDS011;8261;47.678;-122.174;2023-06-22T08:59:17;3.03;;;2.70;;
16304;SDS011;8261;47.678;-122.174;2023-06-22T09:01:48;5.73;;;3.13;;
16304;SDS011;8261;47.678;-122.174;2023-06-22T09:04:19;6.33;;;2.97;;
16304;SDS011;8261;47.678;-122.174;2023-06-22T09:06:53;3.97;;;2.90;;
16304;SDS011;8261;47.678;-122.174;2023-06-22T09:09:25;3.57;;;2.80;;
16304;SDS011;8261;47.678;-122.174;2023-06-22T09:11:56;3.80;;;2.80;;
16304;SDS011;8261;47.678;-122.174;2023-06-22T09:14:27;3.57;;;3.20;;
16304;SDS011;8261;47.678;-122.174;2023-06-22T09:16:59;4.73;;;3.53;;
16304;SDS011;8261;47.678;-122.174;2023-06-22T09:19:30;4.53;;;3.40;;
16304;SDS011;8261;47.678;-122.174;2023-06-22T09:22:05;5.93;;;3.10;;
16304;SDS011;8261;47.678;-122.174;2023-06-22T09:24:37;4.57;;;3.60;;
16304;SDS011;8261;47.678;-122.174;2023-06-22T09:27:08;6.03;;;3.37;;
16304;SDS011;8261;47.678;-122.174;2023-06-22T09:29:40;5.33;;;3.87;;
16304;SDS011;8261;47.678;-122.174;2023-06-22T09:32:13;6.60;;;3.50;;
16304;SDS011;8261;47.678;-122.174;2023-06-22T09:34:45;13.13;;;3.33;;
16304;SDS011;8261;47.678;-122.174;2023-06-22T09:37:18;5.77;;;3.73;;
16304;SDS011;8261;47.678;-122.174;2023-06-22T09:39:50;5.27;;;3.47;;
16304;SDS011;8261;47.678;-122.174;2023-06-22T09:42:21;5.07;;;3.90;;
16304;SDS011;8261;47.678;-122.174;2023-06-22T09:44:53;5.20;;;3.47;;
16304;SDS011;8261;47.678;-122.174;2023-06-22T09:47:25;5.97;;;3.57;;
16304;SDS011;8261;47.678;-122.174;2023-06-22T09:49:57;5.33;;;3.40;;
16304;SDS011;8261;47.678;-122.174;2023-06-22T09:52:31;4.73;;;3.30;;
16304;SDS011;8261;47.678;-122.174;2023-06-22T09:55:06;4.83;;;3.50;;
16304;SDS011;8261;47.678;-122.174;2023-06-22T09:57:38;4.13;;;3.30;;
16304;SDS011;8261;47.678;-122.174;2023-06-22T10:00:10;5.93;;;3.77;;
16304;SDS011;8261;47.678;-122.174;2023-06-22T10:02:44;4.87;;;3.37;;
16304;SDS011;8261;47.678;-122.174;2023-06-22T10:05:17;5.73;;;3.10;;
16304;SDS011;8261;47.678;-122.174;2023-06-22T10:07:50;4.47;;;3.77;;
16304;SDS011;8261;47.678;-122.174;2023-06-22T10:10:22;4.47;;;3.40;;
16304;SDS011;8261;47.678;-122.174;2023-06-22T10:12:54;4.93;;;3.67;;
16304;SDS011;8261;47.678;-122.174;2023-06-22T10:15:27;7.03;;;3.70;;
16304;SDS011;8261;47.678;-122.174;2023-06-22T10:17:59;4.70;;;3.63;;
16304;SDS011;8261;47.678;-122.174;2023-06-22T10:20:30;5.17;;;3.60;;
16304;SDS011;8261;47.678;-122.174;2023-06-22T10:23:03;4.13;;;3.57;;
16304;SDS011;8261;47.678;-122.174;2023-06-22T10:25:35;5.10;;;3.70;;
16304;SDS011;8261;47.678;-122.174;2023-06-22T10:28:06;5.63;;;3.50;;
16304;SDS011;8261;47.678;-122.174;2023-06-22T10:30:38;5.63;;;3.90;;
16304;SDS011;8261;47.678;-122.174;2023-06-22T10:33:12;4.93;;;3.80;;
16304;SDS011;8261;47.678;-122.174;2023-06-22T10:35:43;4.93;;;3.90;;
16304;SDS011;8261;47.678;-122.174;2023-06-22T10:38:17;5.13;;;3.33;;
16304;SDS011;8261;47.678;-122.174;2023-06-22T10:40:49;5.70;;;3.67;;
16304;SDS011;8261;47.678;-122.174;2023-06-22T10:43:21;6.07;;;3.27;;
16304;SDS011;8261;47.678;-122.174;2023-06-22T10:45:53;4.57;;;3.33;;
16304;SDS011;8261;47.678;-122.174;2023-06-22T10:48:25;4.67;;;4.10;;
16304;SDS011;8261;47.678;-122.174;2023-06-22T10:50:56;6.53;;;3.97;;
16304;SDS011;8261;47.678;-122.174;2023-06-22T10:53:28;4.40;;;3.40;;
16304;SDS011;8261;47.678;-122.174;2023-06-22T10:56:00;4.23;;;3.80;;
16304;SDS011;8261;47.678;-122.174;2023-06-22T10:58:31;4.67;;;3.50;;
16304;SDS011;8261;47.678;-122.174;2023-06-22T11:01:02;5.90;;;3.87;;
16304;SDS011;8261;47.678;-122.174;2023-06-22T11:03:40;5.70;;;3.60;;
16304;SDS011;8261;47.678;-122.174;2023-06-22T11:06:12;4.40;;;3.10;;
16304;SDS011;8261;47.678;-122.174;2023-06-22T11:08:46;4.63;;;3.53;;
16304;SDS011;8261;47.678;-122.174;2023-06-22T11:11:32;7.00;;;4.03;;
16304;SDS011;8261;47.678;-122.174;2023-06-22T11:14:03;6.13;;;3.77;;
16304;SDS011;8261;47.678;-122.174;2023-06-22T11:16:35;5.23;;;3.90;;
16304;SDS011;8261;47.678;-122.174;2023-06-22T11:19:05;5.00;;;4.00;;
16304;SDS011;8261;47.678;-122.174;2023-06-22T11:21:37;5.30;;;3.90;;
16304;SDS011;8261;47.678;-122.174;2023-06-22T11:24:10;4.00;;;3.60;;
16304;SDS011;8261;47.678;-122.174;2023-06-22T11:26:42;4.17;;;3.50;;
16304;SDS011;8261;47.678;-122.174;2023-06-22T11:29:13;6.97;;;4.30;;
16304;SDS011;8261;47.678;-122.174;2023-06-22T11:32:03;4.90;;;3.93;;
16304;SDS011;8261;47.678;-122.174;2023-06-22T11:34:38;7.30;;;4.40;;
16304;SDS011;8261;47.678;-122.174;2023-06-22T11:37:10;5.43;;;3.90;;
16304;SDS011;8261;47.678;-122.174;2023-06-22T11:39:44;9.33;;;4.40;;
16304;SDS011;8261;47.678;-122.174;2023-06-22T11:42:18;6.30;;;4.43;;
16304;SDS011;8261;47.678;-122.174;2023-06-22T11:44:51;6.63;;;4.23;;
16304;SDS011;8261;47.678;-122.174;2023-06-22T11:47:24;7.03;;;3.97;;
16304;SDS011;8261;47.678;-122.174;2023-06-22T11:49:57;6.73;;;4.07;;
16304;SDS011;8261;47.678;-122.174;2023-06-22T11:52:29;4.90;;;3.70;;
16304;SDS011;8261;47.678;-122.174;2023-06-22T11:55:03;6.40;;;3.97;;
16304;SDS011;8261;47.678;-122.174;2023-06-22T11:57:35;7.27;;;4.53;;
16304;SDS011;8261;47.678;-122.174;2023-06-22T12:00:08;4.97;;;4.17;;
16304;SDS011;8261;47.678;-122.174;2023-06-22T12:02:45;5.27;;;4.20;;
16304;SDS011;8261;47.678;-122.174;2023-06-22T12:05:17;4.33;;;3.80;;
16304;SDS011;8261;47.678;-122.174;2023-06-22T12:07:52;5.47;;;4.13;;
16304;SDS011;8261;47.678;-122.174;2023-06-22T12:10:25;5.10;;;4.10;;
16304;SDS011;8261;47.678;-122.174;2023-06-22T12:12:58;6.03;;;4.03;;
16304;SDS011;8261;47.678;-122.174;2023-06-22T12:15:29;5.40;;;4.17;;
16304;SDS011;8261;47.678;-122.174;2023-06-22T12:18:01;7.47;;;4.07;;
16304;SDS011;8261;47.678;-122.174;2023-06-22T12:20:33;8.40;;;4.30;;
16304;SDS011;8261;47.678;-122.174;2023-06-22T12:23:03;6.40;;;4.03;;
16304;SDS011;8261;47.678;-122.174;2023-06-22T12:25:37;6.33;;;4.20;;
16304;SDS011;8261;47.678;-122.174;2023-06-22T12:28:09;6.50;;;4.50;;
16304;SDS011;8261;47.678;-122.174;2023-06-22T12:30:40;6.77;;;4.30;;
16304;SDS011;8261;47.678;-122.174;2023-06-22T12:33:11;7.27;;;4.20;;
16304;SDS011;8261;47.678;-122.174;2023-06-22T12:35:43;5.10;;;3.90;;
16304;SDS011;8261;47.678;-122.174;2023-06-22T12:38:16;7.10;;;4.60;;
16304;SDS011;8261;47.678;-122.174;2023-06-22T12:40:50;7.70;;;4.77;;
16304;SDS011;8261;47.678;-122.174;2023-06-22T12:43:21;5.10;;;4.60;;
16304;SDS011;8261;47.678;-122.174;2023-06-22T12:45:53;6.43;;;4.83;;
16304;SDS011;8261;47.678;-122.174;2023-06-22T12:48:25;5.20;;;4.40;;
16304;SDS011;8261;47.678;-122.174;2023-06-22T12:50:58;8.97;;;5.17;;
16304;SDS011;8261;47.678;-122.174;2023-06-22T12:53:29;6.43;;;5.10;;
16304;SDS011;8261;47.678;-122.174;2023-06-22T12:56:02;11.17;;;4.73;;
16304;SDS011;8261;47.678;-122.174;2023-06-22T12:58:35;7.40;;;4.60;;
16304;SDS011;8261;47.678;-122.174;2023-06-22T13:01:06;7.23;;;4.37;;
16304;SDS011;8261;47.678;-122.174;2023-06-22T13:03:38;6.37;;;4.40;;
16304;SDS011;8261;47.678;-122.174;2023-06-22T13:06:10;7.87;;;5.23;;
16304;SDS011;8261;47.678;-122.174;2023-06-22T13:08:41;6.50;;;4.60;;
16304;SDS011;8261;47.678;-122.174;2023-06-22T13:11:17;7.30;;;4.60;;
16304;SDS011;8261;47.678;-122.174;2023-06-22T13:13:49;9.07;;;5.30;;
16304;SDS011;8261;47.678;-122.174;2023-06-22T13:16:19;10.57;;;5.50;;
16304;SDS011;8261;47.678;-122.174;2023-06-22T13:18:51;8.00;;;4.70;;
16304;SDS011;8261;47.678;-122.174;2023-06-22T13:21:22;10.00;;;5.57;;
16304;SDS011;8261;47.678;-122.174;2023-06-22T13:23:54;9.47;;;4.73;;
16304;SDS011;8261;47.678;-122.174;2023-06-22T13:26:28;7.50;;;5.43;;
16304;SDS011;8261;47.678;-122.174;2023-06-22T13:28:59;10.27;;;5.30;;
16304;SDS011;8261;47.678;-122.174;2023-06-22T13:31:31;9.33;;;5.43;;
16304;SDS011;8261;47.678;-122.174;2023-06-22T13:34:03;7.23;;;5.57;;
16304;SDS011;8261;47.678;-122.174;2023-06-22T13:36:34;7.30;;;5.47;;
16304;SDS011;8261;47.678;-122.174;2023-06-22T13:39:06;9.60;;;6.13;;
16304;SDS011;8261;47.678;-122.174;2023-06-22T13:41:40;6.47;;;5.67;;
16304;SDS011;8261;47.678;-122.174;2023-06-22T13:44:11;10.07;;;6.20;;
16304;SDS011;8261;47.678;-122.174;2023-06-22T13:46:43;9.40;;;5.47;;
16304;SDS011;8261;47.678;-122.174;2023-06-22T13:49:15;7.27;;;5.80;;
16304;SDS011;8261;47.678;-122.174;2023-06-22T13:51:46;6.70;;;5.77;;
16304;SDS011;8261;47.678;-122.174;2023-06-22T13:54:18;7.17;;;5.80;;
16304;SDS011;8261;47.678;-122.174;2023-06-22T13:56:54;7.73;;;5.77;;
16304;SDS011;8261;47.678;-122.174;2023-06-22T13:59:25;7.70;;;5.93;;
16304;SDS011;8261;47.678;-122.174;2023-06-22T14:01:57;9.60;;;6.70;;
16304;SDS011;8261;47.678;-122.174;2023-06-22T14:04:28;7.97;;;6.50;;
16304;SDS011;8261;47.678;-122.174;2023-06-22T14:06:59;7.57;;;6.53;;
16304;SDS011;8261;47.678;-122.174;2023-06-22T14:09:31;11.23;;;6.07;;
16304;SDS011;8261;47.678;-122.174;2023-06-22T14:12:06;8.00;;;6.60;;
16304;SDS011;8261;47.678;-122.174;2023-06-22T14:14:38;7.73;;;6.33;;
16304;SDS011;8261;47.678;-122.174;2023-06-22T14:17:09;9.70;;;7.47;;
16304;SDS011;8261;47.678;-122.174;2023-06-22T14:19:41;12.40;;;6.47;;
16304;SDS011;8261;47.678;-122.174;2023-06-22T14:22:13;10.60;;;7.37;;
16304;SDS011;8261;47.678;-122.174;2023-06-22T14:24:44;7.63;;;5.97;;
16304;SDS011;8261;47.678;-122.174;2023-06-22T14:27:18;8.13;;;6.30;;
16304;SDS011;8261;47.678;-122.174;2023-06-22T14:29:51;8.93;;;6.07;;
16304;SDS011;8261;47.678;-122.174;2023-06-22T14:32:22;7.47;;;6.23;;
16304;SDS011;8261;47.678;-122.174;2023-06-22T14:34:53;9.43;;;6.43;;
16304;SDS011;8261;47.678;-122.174;2023-06-22T14:37:25;9.07;;;5.67;;
16304;SDS011;8261;47.678;-122.174;2023-06-22T14:39:57;9.63;;;6.03;;
16304;SDS011;8261;47.678;-122.174;2023-06-22T14:42:30;7.00;;;5.40;;
16304;SDS011;8261;47.678;-122.174;2023-06-22T14:45:02;7.67;;;5.90;;
16304;SDS011;8261;47.678;-122.174;2023-06-22T14:47:34;7.13;;;5.10;;
16304;SDS011;8261;47.678;-122.174;2023-06-22T14:50:06;5.20;;;4.40;;